sensor_id;sensor_type;location;lat;lon;timestamp;P1;durP1;ratioP1;P2;durP2;ratioP2
15317;SDS011;7759;52.528;13.346;2022-08-21T00:00:50;4.82;;;3.38;;
15317;SDS011;7759;52.528;13.346;2022-08-21T00:03:16;4.72;;;3.03;;
15317;SDS011;7759;52.528;13.346;2022-08-21T00:05:44;4.90;;;2.92;;
15317;SDS011;7759;52.528;13.346;2022-08-21T00:08:10;3.85;;;3.17;;
15317;SDS011;7759;52.528;13.346;2022-08-21T00:10:36;3.22;;;2.83;;
15317;SDS011;7759;52.528;13.346;2022-08-21T00:13:05;5.00;;;3.10;;
15317;SDS011;7759;52.528;13.346;2022-08-21T00:15:32;4.15;;;2.92;;
15317;SDS011;7759;52.528;13.346;2022-08-21T00:17:58;5.40;;;3.08;;
15317;SDS011;7759;52.528;13.346;2022-08-21T00:20:24;5.18;;;2.67;;
15317;SDS011;7759;52.528;13.346;2022-08-21T00:22:50;4.75;;;2.05;;
15317;SDS011;7759;52.528;13.346;2022-08-21T00:25:16;2.80;;;2.60;;
15317;SDS011;7759;52.528;13.346;2022-08-21T00:27:43;3.13;;;2.42;;
15317;SDS011;7759;52.528;13.346;2022-08-21T00:30:09;4.57;;;3.38;;
15317;SDS011;7759;52.528;13.346;2022-08-21T00:32:36;4.88;;;2.85;;
15317;SDS011;7759;52.528;13.346;2022-08-21T00:35:03;4.38;;;2.60;;
15317;SDS011;7759;52.528;13.346;2022-08-21T00:37:29;4.10;;;3.25;;
15317;SDS011;7759;52.528;13.346;2022-08-21T00:39:55;4.15;;;2.55;;
15317;SDS011;7759;52.528;13.346;2022-08-21T00:42:21;4.45;;;3.00;;
15317;SDS011;7759;52.528;13.346;2022-08-21T00:44:48;3.78;;;2.83;;
15317;SDS011;7759;52.528;13.346;2022-08-21T00:47:15;5.75;;;3.00;;
15317;SDS011;7759;52.528;13.346;2022-08-21T00:49:41;4.55;;;2.65;;
15317;SDS011;7759;52.528;13.346;2022-08-21T00:52:09;3.72;;;2.90;;
15317;SDS011;7759;52.528;13.346;2022-08-21T00:54:36;4.40;;;2.70;;
15317;SDS011;7759;52.528;13.346;2022-08-21T00:57:04;3.28;;;2.55;;
15317;SDS011;7759;52.528;13.346;2022-08-21T00:59:32;5.38;;;3.75;;
15317;SDS011;7759;52.528;13.346;2022-08-21T01:02:00;3.88;;;2.85;;
15317;SDS011;7759;52.528;13.346;2022-08-21T01:04:26;5.35;;;4.15;;
15317;SDS011;7759;52.528;13.346;2022-08-21T01:06:52;3.50;;;3.10;;
15317;SDS011;7759;52.528;13.346;2022-08-21T01:09:19;6.45;;;3.58;;
15317;SDS011;7759;52.528;13.346;2022-08-21T01:11:46;6.03;;;3.80;;
15317;SDS011;7759;52.528;13.346;2022-08-21T01:14:13;3.60;;;3.00;;
15317;SDS011;7759;52.528;13.346;2022-08-21T01:16:40;2.97;;;2.60;;
15317;SDS011;7759;52.528;13.346;2022-08-21T01:19:08;5.20;;;3.80;;
15317;SDS011;7759;52.528;13.346;2022-08-21T01:21:34;4.13;;;3.20;;
15317;SDS011;7759;52.528;13.346;2022-08-21T01:24:00;4.60;;;3.38;;
15317;SDS011;7759;52.528;13.346;2022-08-21T01:26:28;4.60;;;3.15;;
15317;SDS011;7759;52.528;13.346;2022-08-21T01:28:59;5.68;;;3.80;;
15317;SDS011;7759;52.528;13.346;2022-08-21T01:31:26;4.10;;;3.50;;
15317;SDS011;7759;52.528;13.346;2022-08-21T01:33:53;3.85;;;3.00;;
15317;SDS011;7759;52.528;13.346;2022-08-21T01:36:19;4.40;;;3.22;;
15317;SDS011;7759;52.528;13.346;2022-08-21T01:38:45;3.90;;;3.17;;
15317;SDS011;7759;52.528;13.346;2022-08-21T01:41:12;5.90;;;3.38;;
15317;SDS011;7759;52.528;13.346;2022-08-21T01:43:38;3.83;;;3.35;;
15317;SDS011;7759;52.528;13.346;2022-08-21T01:46:04;3.95;;;3.08;;
15317;SDS011;7759;52.528;13.346;2022-08-21T01:48:30;4.72;;;2.92;;
15317;SDS011;7759;52.528;13.346;2022-08-21T01:50:56;3.90;;;2.67;;
15317;SDS011;7759;52.528;13.346;2022-08-21T01:53:21;4.47;;;2.75;;
15317;SDS011;7759;52.528;13.346;2022-08-21T01:55:47;5.22;;;2.20;;
15317;SDS011;7759;52.528;13.346;2022-08-21T01:58:13;3.97;;;2.53;;
15317;SDS011;7759;52.528;13.346;2022-08-21T02:00:39;3.03;;;2.50;;
15317;SDS011;7759;52.528;13.346;2022-08-21T02:03:05;3.05;;;2.33;;
15317;SDS011;7759;52.528;13.346;2022-08-21T02:05:31;2.83;;;1.98;;
15317;SDS011;7759;52.528;13.346;2022-08-21T02:07:57;3.33;;;2.05;;
15317;SDS011;7759;52.528;13.346;2022-08-21T02:10:25;2.55;;;2.35;;
15317;SDS011;7759;52.528;13.346;2022-08-21T02:12:51;3.80;;;2.83;;
15317;SDS011;7759;52.528;13.346;2022-08-21T02:15:17;4.43;;;2.30;;
15317;SDS011;7759;52.528;13.346;2022-08-21T02:17:45;3.28;;;2.38;;
15317;SDS011;7759;52.528;13.346;2022-08-21T02:20:15;3.90;;;2.70;;
15317;SDS011;7759;52.528;13.346;2022-08-21T02:22:41;2.80;;;2.25;;
15317;SDS011;7759;52.528;13.346;2022-08-21T02:25:07;3.15;;;2.35;;
15317;SDS011;7759;52.528;13.346;2022-08-21T02:27:43;5.43;;;2.20;;
15317;SDS011;7759;52.528;13.346;2022-08-21T02:30:13;3.58;;;2.03;;
15317;SDS011;7759;52.528;13.346;2022-08-21T02:32:39;4.10;;;1.90;;
15317;SDS011;7759;52.528;13.346;2022-08-21T02:35:05;3.47;;;2.45;;
15317;SDS011;7759;52.528;13.346;2022-08-21T02:37:31;3.35;;;1.80;;
15317;SDS011;7759;52.528;13.346;2022-08-21T02:39:58;2.53;;;2.10;;
15317;SDS011;7759;52.528;13.346;2022-08-21T02:42:25;4.32;;;2.30;;
15317;SDS011;7759;52.528;13.346;2022-08-21T02:44:51;2.92;;;2.28;;
15317;SDS011;7759;52.528;13.346;2022-08-21T02:47:17;2.75;;;2.00;;
15317;SDS011;7759;52.528;13.346;2022-08-21T02:49:43;4.22;;;2.78;;
15317;SDS011;7759;52.528;13.346;2022-08-21T02:52:08;2.85;;;2.30;;
15317;SDS011;7759;52.528;13.346;2022-08-21T02:54:36;2.45;;;1.80;;
15317;SDS011;7759;52.528;13.346;2022-08-21T02:57:02;4.97;;;2.28;;
15317;SDS011;7759;52.528;13.346;2022-08-21T02:59:28;3.33;;;2.30;;
15317;SDS011;7759;52.528;13.346;2022-08-21T03:01:54;5.18;;;2.60;;
15317;SDS011;7759;52.528;13.346;2022-08-21T03:04:20;2.78;;;2.33;;
15317;SDS011;7759;52.528;13.346;2022-08-21T03:06:46;4.53;;;2.45;;
15317;SDS011;7759;52.528;13.346;2022-08-21T03:09:13;2.85;;;2.15;;
15317;SDS011;7759;52.528;13.346;2022-08-21T03:11:39;3.08;;;2.00;;
15317;SDS011;7759;52.528;13.346;2022-08-21T03:14:05;4.70;;;2.08;;
15317;SDS011;7759;52.528;13.346;2022-08-21T03:16:30;2.28;;;1.67;;
15317;SDS011;7759;52.528;13.346;2022-08-21T03:18:56;2.42;;;2.22;;
15317;SDS011;7759;52.528;13.346;2022-08-21T03:21:22;4.55;;;2.28;;
15317;SDS011;7759;52.528;13.346;2022-08-21T03:23:48;4.32;;;2.47;;
15317;SDS011;7759;52.528;13.346;2022-08-21T03:26:14;3.00;;;1.92;;
15317;SDS011;7759;52.528;13.346;2022-08-21T03:28:40;3.58;;;2.20;;
15317;SDS011;7759;52.528;13.346;2022-08-21T03:31:06;3.53;;;2.42;;
15317;SDS011;7759;52.528;13.346;2022-08-21T03:33:32;5.53;;;1.92;;
15317;SDS011;7759;52.528;13.346;2022-08-21T03:36:00;3.20;;;2.25;;
15317;SDS011;7759;52.528;13.346;2022-08-21T03:38:26;3.33;;;1.90;;
15317;SDS011;7759;52.528;13.346;2022-08-21T03:40:53;3.28;;;2.17;;
15317;SDS011;7759;52.528;13.346;2022-08-21T03:43:19;5.43;;;2.47;;
15317;SDS011;7759;52.528;13.346;2022-08-21T03:45:45;3.83;;;2.28;;
15317;SDS011;7759;52.528;13.346;2022-08-21T03:48:11;3.92;;;2.03;;
15317;SDS011;7759;52.528;13.346;2022-08-21T03:50:39;3.38;;;2.05;;
15317;SDS011;7759;52.528;13.346;2022-08-21T03:53:05;6.93;;;2.38;;
15317;SDS011;7759;52.528;13.346;2022-08-21T03:55:31;5.68;;;2.30;;
15317;SDS011;7759;52.528;13.346;2022-08-21T03:57:57;3.17;;;1.83;;
15317;SDS011;7759;52.528;13.346;2022-08-21T04:00:23;2.33;;;1.80;;
15317;SDS011;7759;52.528;13.346;2022-08-21T04:02:49;3.28;;;2.10;;
15317;SDS011;7759;52.528;13.346;2022-08-21T04:05:16;2.28;;;1.67;;
15317;SDS011;7759;52.528;13.346;2022-08-21T04:07:58;3.40;;;2.40;;
15317;SDS011;7759;52.528;13.346;2022-08-21T04:10:25;3.67;;;2.08;;
15317;SDS011;7759;52.528;13.346;2022-08-21T04:12:52;2.55;;;1.90;;
15317;SDS011;7759;52.528;13.346;2022-08-21T04:15:19;4.07;;;1.70;;
15317;SDS011;7759;52.528;13.346;2022-08-21T04:17:45;3.97;;;2.10;;
15317;SDS011;7759;52.528;13.346;2022-08-21T04:20:10;3.22;;;2.00;;
15317;SDS011;7759;52.528;13.346;2022-08-21T04:22:37;3.13;;;1.70;;
15317;SDS011;7759;52.528;13.346;2022-08-21T04:25:04;6.80;;;2.17;;
15317;SDS011;7759;52.528;13.346;2022-08-21T04:27:30;7.45;;;2.33;;
15317;SDS011;7759;52.528;13.346;2022-08-21T04:29:55;3.45;;;1.67;;
15317;SDS011;7759;52.528;13.346;2022-08-21T04:32:22;2.90;;;1.90;;
15317;SDS011;7759;52.528;13.346;2022-08-21T04:34:48;3.17;;;1.75;;
15317;SDS011;7759;52.528;13.346;2022-08-21T04:37:14;2.03;;;1.50;;
15317;SDS011;7759;52.528;13.346;2022-08-21T04:39:41;3.03;;;2.00;;
15317;SDS011;7759;52.528;13.346;2022-08-21T04:42:07;2.85;;;1.55;;
15317;SDS011;7759;52.528;13.346;2022-08-21T04:44:33;2.03;;;1.50;;
15317;SDS011;7759;52.528;13.346;2022-08-21T04:46:59;4.00;;;2.17;;
15317;SDS011;7759;52.528;13.346;2022-08-21T04:49:25;4.43;;;2.22;;
15317;SDS011;7759;52.528;13.346;2022-08-21T04:51:51;4.38;;;1.70;;
15317;SDS011;7759;52.528;13.346;2022-08-21T04:54:19;1.85;;;1.55;;
15317;SDS011;7759;52.528;13.346;2022-08-21T04:56:49;6.70;;;1.95;;
15317;SDS011;7759;52.528;13.346;2022-08-21T04:59:18;3.97;;;1.60;;
15317;SDS011;7759;52.528;13.346;2022-08-21T05:01:46;4.47;;;2.00;;
15317;SDS011;7759;52.528;13.346;2022-08-21T05:04:13;2.38;;;1.50;;
15317;SDS011;7759;52.528;13.346;2022-08-21T05:06:40;2.90;;;2.00;;
15317;SDS011;7759;52.528;13.346;2022-08-21T05:09:07;4.28;;;1.55;;
15317;SDS011;7759;52.528;13.346;2022-08-21T05:11:34;2.30;;;1.42;;
15317;SDS011;7759;52.528;13.346;2022-08-21T05:14:01;2.97;;;1.60;;
15317;SDS011;7759;52.528;13.346;2022-08-21T05:16:27;2.92;;;1.70;;
15317;SDS011;7759;52.528;13.346;2022-08-21T05:18:53;1.65;;;1.38;;
15317;SDS011;7759;52.528;13.346;2022-08-21T05:21:19;2.65;;;1.67;;
15317;SDS011;7759;52.528;13.346;2022-08-21T05:23:45;6.18;;;2.10;;
15317;SDS011;7759;52.528;13.346;2022-08-21T05:26:11;3.78;;;1.60;;
15317;SDS011;7759;52.528;13.346;2022-08-21T05:28:37;3.40;;;1.77;;
15317;SDS011;7759;52.528;13.346;2022-08-21T05:31:03;4.22;;;1.70;;
15317;SDS011;7759;52.528;13.346;2022-08-21T05:33:29;4.35;;;1.98;;
15317;SDS011;7759;52.528;13.346;2022-08-21T05:35:55;2.83;;;1.92;;
15317;SDS011;7759;52.528;13.346;2022-08-21T05:38:21;2.40;;;1.50;;
15317;SDS011;7759;52.528;13.346;2022-08-21T05:40:47;5.03;;;1.80;;
15317;SDS011;7759;52.528;13.346;2022-08-21T05:43:14;3.33;;;1.58;;
15317;SDS011;7759;52.528;13.346;2022-08-21T05:45:40;2.65;;;1.50;;
15317;SDS011;7759;52.528;13.346;2022-08-21T05:48:16;3.03;;;1.67;;
15317;SDS011;7759;52.528;13.346;2022-08-21T05:50:43;2.15;;;1.50;;
15317;SDS011;7759;52.528;13.346;2022-08-21T05:53:09;3.10;;;1.63;;
15317;SDS011;7759;52.528;13.346;2022-08-21T05:55:35;2.03;;;1.48;;
15317;SDS011;7759;52.528;13.346;2022-08-21T05:58:02;2.65;;;1.83;;
15317;SDS011;7759;52.528;13.346;2022-08-21T06:00:28;2.72;;;1.73;;
15317;SDS011;7759;52.528;13.346;2022-08-21T06:02:54;4.05;;;2.05;;
15317;SDS011;7759;52.528;13.346;2022-08-21T06:05:20;4.90;;;1.58;;
15317;SDS011;7759;52.528;13.346;2022-08-21T06:07:46;4.90;;;1.70;;
15317;SDS011;7759;52.528;13.346;2022-08-21T06:10:12;2.22;;;1.60;;
15317;SDS011;7759;52.528;13.346;2022-08-21T06:12:38;2.22;;;1.33;;
15317;SDS011;7759;52.528;13.346;2022-08-21T06:15:04;5.45;;;2.00;;
15317;SDS011;7759;52.528;13.346;2022-08-21T06:17:30;2.47;;;1.70;;
15317;SDS011;7759;52.528;13.346;2022-08-21T06:19:56;2.42;;;1.50;;
15317;SDS011;7759;52.528;13.346;2022-08-21T06:22:22;2.45;;;1.50;;
15317;SDS011;7759;52.528;13.346;2022-08-21T06:24:47;4.07;;;1.77;;
15317;SDS011;7759;52.528;13.346;2022-08-21T06:27:14;4.18;;;1.65;;
15317;SDS011;7759;52.528;13.346;2022-08-21T06:29:40;3.47;;;1.20;;
15317;SDS011;7759;52.528;13.346;2022-08-21T06:32:06;4.75;;;1.83;;
15317;SDS011;7759;52.528;13.346;2022-08-21T06:34:35;5.40;;;1.50;;
15317;SDS011;7759;52.528;13.346;2022-08-21T06:37:02;3.60;;;1.58;;
15317;SDS011;7759;52.528;13.346;2022-08-21T06:39:28;2.00;;;1.40;;
15317;SDS011;7759;52.528;13.346;2022-08-21T06:41:54;2.53;;;1.52;;
15317;SDS011;7759;52.528;13.346;2022-08-21T06:44:20;4.05;;;1.50;;
15317;SDS011;7759;52.528;13.346;2022-08-21T06:46:46;5.18;;;1.70;;
15317;SDS011;7759;52.528;13.346;2022-08-21T06:49:12;6.53;;;2.50;;
15317;SDS011;7759;52.528;13.346;2022-08-21T06:51:38;3.03;;;2.03;;
15317;SDS011;7759;52.528;13.346;2022-08-21T06:54:04;3.97;;;1.58;;
15317;SDS011;7759;52.528;13.346;2022-08-21T06:56:30;8.15;;;1.63;;
15317;SDS011;7759;52.528;13.346;2022-08-21T06:58:58;3.75;;;1.67;;
15317;SDS011;7759;52.528;13.346;2022-08-21T07:01:24;6.65;;;2.17;;
15317;SDS011;7759;52.528;13.346;2022-08-21T07:03:50;5.07;;;1.83;;
15317;SDS011;7759;52.528;13.346;2022-08-21T07:06:16;3.22;;;1.90;;
15317;SDS011;7759;52.528;13.346;2022-08-21T07:08:42;3.55;;;1.67;;
15317;SDS011;7759;52.528;13.346;2022-08-21T07:11:14;3.92;;;1.70;;
15317;SDS011;7759;52.528;13.346;2022-08-21T07:13:41;2.38;;;1.88;;
15317;SDS011;7759;52.528;13.346;2022-08-21T07:16:07;4.70;;;1.98;;
15317;SDS011;7759;52.528;13.346;2022-08-21T07:18:33;3.55;;;1.70;;
15317;SDS011;7759;52.528;13.346;2022-08-21T07:21:03;4.57;;;2.15;;
15317;SDS011;7759;52.528;13.346;2022-08-21T07:23:31;4.72;;;1.70;;
15317;SDS011;7759;52.528;13.346;2022-08-21T07:25:58;3.10;;;1.50;;
15317;SDS011;7759;52.528;13.346;2022-08-21T07:28:27;6.00;;;1.67;;
15317;SDS011;7759;52.528;13.346;2022-08-21T07:30:55;3.95;;;1.52;;
15317;SDS011;7759;52.528;13.346;2022-08-21T07:33:22;2.30;;;1.63;;
15317;SDS011;7759;52.528;13.346;2022-08-21T07:35:48;6.15;;;2.05;;
15317;SDS011;7759;52.528;13.346;2022-08-21T07:38:14;2.72;;;1.52;;
15317;SDS011;7759;52.528;13.346;2022-08-21T07:40:40;4.72;;;1.70;;
15317;SDS011;7759;52.528;13.346;2022-08-21T07:43:06;2.72;;;1.30;;
15317;SDS011;7759;52.528;13.346;2022-08-21T07:45:32;4.20;;;1.88;;
15317;SDS011;7759;52.528;13.346;2022-08-21T07:47:58;2.35;;;1.38;;
15317;SDS011;7759;52.528;13.346;2022-08-21T07:50:24;5.15;;;2.10;;
15317;SDS011;7759;52.528;13.346;2022-08-21T07:52:50;3.75;;;1.67;;
15317;SDS011;7759;52.528;13.346;2022-08-21T07:55:18;3.97;;;1.65;;
15317;SDS011;7759;52.528;13.346;2022-08-21T07:57:45;3.38;;;1.70;;
15317;SDS011;7759;52.528;13.346;2022-08-21T08:00:13;6.15;;;1.63;;
15317;SDS011;7759;52.528;13.346;2022-08-21T08:02:39;2.60;;;1.63;;
15317;SDS011;7759;52.528;13.346;2022-08-21T08:05:07;4.82;;;1.80;;
15317;SDS011;7759;52.528;13.346;2022-08-21T08:07:34;3.10;;;1.60;;
15317;SDS011;7759;52.528;13.346;2022-08-21T08:10:00;4.80;;;1.55;;
15317;SDS011;7759;52.528;13.346;2022-08-21T08:12:26;4.22;;;1.67;;
15317;SDS011;7759;52.528;13.346;2022-08-21T08:14:56;2.40;;;1.70;;
15317;SDS011;7759;52.528;13.346;2022-08-21T08:17:22;3.92;;;1.67;;
15317;SDS011;7759;52.528;13.346;2022-08-21T08:19:48;3.47;;;1.30;;
15317;SDS011;7759;52.528;13.346;2022-08-21T08:22:15;4.53;;;2.00;;
15317;SDS011;7759;52.528;13.346;2022-08-21T08:24:42;3.33;;;2.00;;
15317;SDS011;7759;52.528;13.346;2022-08-21T08:27:08;5.80;;;1.70;;
15317;SDS011;7759;52.528;13.346;2022-08-21T08:29:33;4.28;;;2.08;;
15317;SDS011;7759;52.528;13.346;2022-08-21T08:31:59;3.22;;;1.48;;
15317;SDS011;7759;52.528;13.346;2022-08-21T08:34:25;8.57;;;1.80;;
15317;SDS011;7759;52.528;13.346;2022-08-21T08:36:52;5.03;;;1.50;;
15317;SDS011;7759;52.528;13.346;2022-08-21T08:39:18;4.93;;;1.80;;
15317;SDS011;7759;52.528;13.346;2022-08-21T08:41:45;2.47;;;1.17;;
15317;SDS011;7759;52.528;13.346;2022-08-21T08:44:12;3.50;;;1.67;;
15317;SDS011;7759;52.528;13.346;2022-08-21T08:46:43;2.88;;;1.52;;
15317;SDS011;7759;52.528;13.346;2022-08-21T08:49:12;4.38;;;1.50;;
15317;SDS011;7759;52.528;13.346;2022-08-21T08:54:07;2.83;;;1.35;;
15317;SDS011;7759;52.528;13.346;2022-08-21T08:56:34;2.95;;;1.20;;
15317;SDS011;7759;52.528;13.346;2022-08-21T08:59:08;4.47;;;1.65;;
15317;SDS011;7759;52.528;13.346;2022-08-21T09:01:37;2.10;;;1.40;;
15317;SDS011;7759;52.528;13.346;2022-08-21T09:04:02;3.53;;;1.60;;
15317;SDS011;7759;52.528;13.346;2022-08-21T09:06:48;3.03;;;1.58;;
15317;SDS011;7759;52.528;13.346;2022-08-21T09:11:44;3.13;;;1.40;;
15317;SDS011;7759;52.528;13.346;2022-08-21T09:14:31;2.92;;;1.13;;
15317;SDS011;7759;52.528;13.346;2022-08-21T09:17:04;2.58;;;1.30;;
15317;SDS011;7759;52.528;13.346;2022-08-21T09:19:56;4.07;;;1.20;;
15317;SDS011;7759;52.528;13.346;2022-08-21T09:22:47;1.77;;;1.10;;
15317;SDS011;7759;52.528;13.346;2022-08-21T09:25:26;2.08;;;1.00;;
15317;SDS011;7759;52.528;13.346;2022-08-21T09:27:53;1.45;;;0.88;;
15317;SDS011;7759;52.528;13.346;2022-08-21T09:30:19;2.63;;;1.23;;
15317;SDS011;7759;52.528;13.346;2022-08-21T09:32:49;1.45;;;1.02;;
15317;SDS011;7759;52.528;13.346;2022-08-21T09:35:24;2.53;;;1.17;;
15317;SDS011;7759;52.528;13.346;2022-08-21T09:37:53;2.03;;;0.90;;
15317;SDS011;7759;52.528;13.346;2022-08-21T09:40:40;3.55;;;1.15;;
15317;SDS011;7759;52.528;13.346;2022-08-21T09:43:27;2.80;;;1.15;;
15317;SDS011;7759;52.528;13.346;2022-08-21T09:46:03;1.63;;;1.08;;
15317;SDS011;7759;52.528;13.346;2022-08-21T09:48:29;3.88;;;1.20;;
15317;SDS011;7759;52.528;13.346;2022-08-21T09:51:05;1.55;;;0.90;;
15317;SDS011;7759;52.528;13.346;2022-08-21T09:53:31;2.65;;;1.20;;
15317;SDS011;7759;52.528;13.346;2022-08-21T09:56:04;1.33;;;1.10;;
15317;SDS011;7759;52.528;13.346;2022-08-21T09:58:50;2.25;;;1.50;;
15317;SDS011;7759;52.528;13.346;2022-08-21T10:01:23;3.35;;;1.10;;
15317;SDS011;7759;52.528;13.346;2022-08-21T10:04:02;2.30;;;1.17;;
15317;SDS011;7759;52.528;13.346;2022-08-21T10:06:28;2.28;;;1.23;;
15317;SDS011;7759;52.528;13.346;2022-08-21T10:09:08;2.60;;;1.20;;
15317;SDS011;7759;52.528;13.346;2022-08-21T10:11:34;3.35;;;1.27;;
15317;SDS011;7759;52.528;13.346;2022-08-21T10:16:33;3.85;;;1.48;;
15317;SDS011;7759;52.528;13.346;2022-08-21T10:19:12;1.38;;;1.17;;
15317;SDS011;7759;52.528;13.346;2022-08-21T10:21:48;2.38;;;1.40;;
15317;SDS011;7759;52.528;13.346;2022-08-21T10:24:24;2.83;;;1.30;;
15317;SDS011;7759;52.528;13.346;2022-08-21T10:26:56;4.32;;;1.60;;
15317;SDS011;7759;52.528;13.346;2022-08-21T10:29:41;1.98;;;1.30;;
15317;SDS011;7759;52.528;13.346;2022-08-21T10:32:15;3.55;;;1.48;;
15317;SDS011;7759;52.528;13.346;2022-08-21T10:34:50;2.10;;;1.13;;
15317;SDS011;7759;52.528;13.346;2022-08-21T10:39:51;2.95;;;1.42;;
15317;SDS011;7759;52.528;13.346;2022-08-21T10:42:25;2.47;;;1.23;;
15317;SDS011;7759;52.528;13.346;2022-08-21T10:45:07;8.95;;;1.63;;
15317;SDS011;7759;52.528;13.346;2022-08-21T10:47:40;3.00;;;1.60;;
15317;SDS011;7759;52.528;13.346;2022-08-21T10:52:41;1.52;;;0.98;;
15317;SDS011;7759;52.528;13.346;2022-08-21T10:55:14;7.85;;;1.30;;
15317;SDS011;7759;52.528;13.346;2022-08-21T10:57:45;3.38;;;1.35;;
15317;SDS011;7759;52.528;13.346;2022-08-21T11:00:14;4.60;;;1.58;;
15317;SDS011;7759;52.528;13.346;2022-08-21T11:05:27;3.20;;;1.35;;
15317;SDS011;7759;52.528;13.346;2022-08-21T11:07:55;1.63;;;1.48;;
15317;SDS011;7759;52.528;13.346;2022-08-21T11:13:00;1.90;;;1.05;;
15317;SDS011;7759;52.528;13.346;2022-08-21T11:15:44;8.18;;;4.13;;
15317;SDS011;7759;52.528;13.346;2022-08-21T11:18:24;1.88;;;1.33;;
15317;SDS011;7759;52.528;13.346;2022-08-21T11:23:38;1.63;;;1.23;;
15317;SDS011;7759;52.528;13.346;2022-08-21T11:26:11;2.17;;;0.98;;
15317;SDS011;7759;52.528;13.346;2022-08-21T11:28:42;1.67;;;1.20;;
15317;SDS011;7759;52.528;13.346;2022-08-21T11:31:23;1.90;;;1.10;;
15317;SDS011;7759;52.528;13.346;2022-08-21T11:34:08;1.55;;;1.10;;
15317;SDS011;7759;52.528;13.346;2022-08-21T11:36:56;1.73;;;1.10;;
15317;SDS011;7759;52.528;13.346;2022-08-21T11:39:32;0.98;;;0.85;;
15317;SDS011;7759;52.528;13.346;2022-08-21T11:42:03;1.35;;;0.82;;
15317;SDS011;7759;52.528;13.346;2022-08-21T11:44:36;2.80;;;1.25;;
15317;SDS011;7759;52.528;13.346;2022-08-21T11:47:12;3.15;;;1.60;;
15317;SDS011;7759;52.528;13.346;2022-08-21T11:49:53;2.53;;;1.30;;
15317;SDS011;7759;52.528;13.346;2022-08-21T11:52:26;4.00;;;1.38;;
15317;SDS011;7759;52.528;13.346;2022-08-21T11:57:57;1.50;;;1.00;;
15317;SDS011;7759;52.528;13.346;2022-08-21T12:00:35;1.65;;;1.10;;
15317;SDS011;7759;52.528;13.346;2022-08-21T12:03:06;1.40;;;1.25;;
15317;SDS011;7759;52.528;13.346;2022-08-21T12:05:34;1.40;;;1.10;;
15317;SDS011;7759;52.528;13.346;2022-08-21T12:10:35;1.08;;;0.98;;
15317;SDS011;7759;52.528;13.346;2022-08-21T12:13:05;1.10;;;1.00;;
15317;SDS011;7759;52.528;13.346;2022-08-21T12:15:33;1.17;;;1.00;;
15317;SDS011;7759;52.528;13.346;2022-08-21T12:20:44;2.38;;;1.10;;
15317;SDS011;7759;52.528;13.346;2022-08-21T12:23:29;1.75;;;0.98;;
15317;SDS011;7759;52.528;13.346;2022-08-21T12:28:27;2.85;;;1.20;;
15317;SDS011;7759;52.528;13.346;2022-08-21T12:30:55;3.53;;;1.48;;
15317;SDS011;7759;52.528;13.346;2022-08-21T12:33:26;1.80;;;1.20;;
15317;SDS011;7759;52.528;13.346;2022-08-21T12:35:53;2.17;;;1.10;;
15317;SDS011;7759;52.528;13.346;2022-08-21T12:38:28;1.95;;;1.10;;
15317;SDS011;7759;52.528;13.346;2022-08-21T12:40:56;1.25;;;1.08;;
15317;SDS011;7759;52.528;13.346;2022-08-21T12:43:30;2.67;;;1.10;;
15317;SDS011;7759;52.528;13.346;2022-08-21T12:45:58;1.48;;;1.08;;
15317;SDS011;7759;52.528;13.346;2022-08-21T12:48:29;2.03;;;1.42;;
15317;SDS011;7759;52.528;13.346;2022-08-21T12:51:13;2.33;;;1.25;;
15317;SDS011;7759;52.528;13.346;2022-08-21T12:53:41;2.08;;;1.08;;
15317;SDS011;7759;52.528;13.346;2022-08-21T12:56:08;2.42;;;1.27;;
15317;SDS011;7759;52.528;13.346;2022-08-21T12:58:35;3.17;;;1.27;;
15317;SDS011;7759;52.528;13.346;2022-08-21T13:01:09;2.78;;;0.93;;
15317;SDS011;7759;52.528;13.346;2022-08-21T13:03:38;2.28;;;1.20;;
15317;SDS011;7759;52.528;13.346;2022-08-21T13:06:05;6.07;;;1.50;;
15317;SDS011;7759;52.528;13.346;2022-08-21T13:08:31;1.48;;;1.00;;
15317;SDS011;7759;52.528;13.346;2022-08-21T13:11:00;2.17;;;1.30;;
15317;SDS011;7759;52.528;13.346;2022-08-21T13:13:27;3.97;;;2.08;;
15317;SDS011;7759;52.528;13.346;2022-08-21T13:15:57;2.78;;;1.30;;
15317;SDS011;7759;52.528;13.346;2022-08-21T13:18:25;2.20;;;1.30;;
15317;SDS011;7759;52.528;13.346;2022-08-21T13:20:52;2.35;;;1.17;;
15317;SDS011;7759;52.528;13.346;2022-08-21T13:23:28;3.97;;;1.30;;
15317;SDS011;7759;52.528;13.346;2022-08-21T13:25:55;3.85;;;1.27;;
15317;SDS011;7759;52.528;13.346;2022-08-21T13:28:21;3.10;;;1.60;;
15317;SDS011;7759;52.528;13.346;2022-08-21T13:30:48;2.85;;;1.85;;
15317;SDS011;7759;52.528;13.346;2022-08-21T13:33:15;1.98;;;1.38;;
15317;SDS011;7759;52.528;13.346;2022-08-21T13:35:46;3.38;;;1.27;;
15317;SDS011;7759;52.528;13.346;2022-08-21T13:38:12;5.70;;;1.50;;
15317;SDS011;7759;52.528;13.346;2022-08-21T13:40:49;3.05;;;1.27;;
15317;SDS011;7759;52.528;13.346;2022-08-21T13:43:15;1.65;;;1.00;;
15317;SDS011;7759;52.528;13.346;2022-08-21T13:45:43;3.58;;;1.42;;
15317;SDS011;7759;52.528;13.346;2022-08-21T13:48:09;4.68;;;1.60;;
15317;SDS011;7759;52.528;13.346;2022-08-21T13:50:36;3.75;;;1.50;;
15317;SDS011;7759;52.528;13.346;2022-08-21T13:53:05;2.00;;;1.20;;
15317;SDS011;7759;52.528;13.346;2022-08-21T13:55:38;4.90;;;1.42;;
15317;SDS011;7759;52.528;13.346;2022-08-21T13:58:06;1.38;;;1.08;;
15317;SDS011;7759;52.528;13.346;2022-08-21T14:00:34;3.55;;;1.30;;
15317;SDS011;7759;52.528;13.346;2022-08-21T14:03:08;4.28;;;1.27;;
15317;SDS011;7759;52.528;13.346;2022-08-21T14:05:36;3.58;;;1.63;;
15317;SDS011;7759;52.528;13.346;2022-08-21T14:10:29;1.48;;;1.33;;
15317;SDS011;7759;52.528;13.346;2022-08-21T14:12:57;2.65;;;1.23;;
15317;SDS011;7759;52.528;13.346;2022-08-21T14:15:26;3.70;;;1.42;;
15317;SDS011;7759;52.528;13.346;2022-08-21T14:17:53;3.60;;;1.45;;
15317;SDS011;7759;52.528;13.346;2022-08-21T14:20:27;1.38;;;1.17;;
15317;SDS011;7759;52.528;13.346;2022-08-21T14:22:54;1.65;;;1.08;;
15317;SDS011;7759;52.528;13.346;2022-08-21T14:27:53;5.80;;;1.85;;
15317;SDS011;7759;52.528;13.346;2022-08-21T14:30:21;3.55;;;1.42;;
15317;SDS011;7759;52.528;13.346;2022-08-21T14:32:47;1.30;;;1.00;;
15317;SDS011;7759;52.528;13.346;2022-08-21T14:35:13;3.50;;;1.35;;
15317;SDS011;7759;52.528;13.346;2022-08-21T14:37:45;5.05;;;1.60;;
15317;SDS011;7759;52.528;13.346;2022-08-21T14:40:11;3.28;;;1.83;;
15317;SDS011;7759;52.528;13.346;2022-08-21T14:42:37;6.30;;;1.55;;
15317;SDS011;7759;52.528;13.346;2022-08-21T14:47:41;6.70;;;1.25;;
15317;SDS011;7759;52.528;13.346;2022-08-21T14:50:07;4.13;;;1.48;;
15317;SDS011;7759;52.528;13.346;2022-08-21T14:52:33;2.97;;;1.60;;
15317;SDS011;7759;52.528;13.346;2022-08-21T14:55:00;1.92;;;1.27;;
15317;SDS011;7759;52.528;13.346;2022-08-21T14:57:26;3.33;;;1.55;;
15317;SDS011;7759;52.528;13.346;2022-08-21T14:59:52;3.67;;;1.70;;
15317;SDS011;7759;52.528;13.346;2022-08-21T15:02:18;2.95;;;1.50;;
15317;SDS011;7759;52.528;13.346;2022-08-21T15:04:44;4.05;;;1.52;;
15317;SDS011;7759;52.528;13.346;2022-08-21T15:07:10;4.72;;;1.58;;
15317;SDS011;7759;52.528;13.346;2022-08-21T15:09:36;4.57;;;1.40;;
15317;SDS011;7759;52.528;13.346;2022-08-21T15:12:02;5.53;;;1.65;;
15317;SDS011;7759;52.528;13.346;2022-08-21T15:14:29;3.05;;;1.27;;
15317;SDS011;7759;52.528;13.346;2022-08-21T15:16:55;3.05;;;1.40;;
15317;SDS011;7759;52.528;13.346;2022-08-21T15:19:21;2.53;;;1.42;;
15317;SDS011;7759;52.528;13.346;2022-08-21T15:21:48;3.45;;;1.10;;
15317;SDS011;7759;52.528;13.346;2022-08-21T15:24:14;1.80;;;1.20;;
15317;SDS011;7759;52.528;13.346;2022-08-21T15:26:40;3.80;;;1.90;;
15317;SDS011;7759;52.528;13.346;2022-08-21T15:29:06;2.17;;;1.58;;
15317;SDS011;7759;52.528;13.346;2022-08-21T15:31:33;2.38;;;1.58;;
15317;SDS011;7759;52.528;13.346;2022-08-21T15:33:59;3.90;;;1.40;;